CheckWX is a tool to help pilots better visualize weather data.  It is not intended as a substitute for an official pre-flight weather briefing.

20:11:43 UTC

KCDS METAR
Childress Municipal Airport
Childress, Texas, USA
Current

19 mins ago

KCDS 231953Z AUTO 03007KT 10SM OVC013 15/11 A3006 RMK AO2 SLP168 T01500111
Observed
Apr-23 @ 19:53 UTC
Wind
  • 030° at 7 KTS
Visibility
10 SM
Flight Rules
MVFR
Cloud Levels
  • Overcast at 1,300' AGL
Temperature
15°C / 59°F
Dewpoint
11°C / 52°F
Humidity
77%
Altimeter
30.06" Hg
Pressure
1017.92 hPa
Previous

1 hour ago

KCDS 231853Z AUTO 03011KT 10SM OVC011 14/11 A3006 RMK AO2 SLP167 T01440111
Observed
Apr-23 @ 18:53 UTC
Wind
  • 030° at 11 KTS
Visibility
10 SM
Flight Rules
MVFR
Cloud Levels
  • Overcast at 1,100' AGL
Temperature
14°C / 57°F
Dewpoint
11°C / 52°F
Humidity
82%
Altimeter
30.06" Hg
Pressure
1017.92 hPa
Previous

2 hours ago

KCDS 231834Z AUTO 02016KT 10SM OVC010 14/11 A3005 RMK AO2 CIG 008V012 T01440111
Observed
Apr-23 @ 18:34 UTC
Wind
  • 020° at 16 KTS
Visibility
10 SM
Flight Rules
MVFR
Cloud Levels
  • Overcast at 1,000' AGL
Temperature
14°C / 57°F
Dewpoint
11°C / 52°F
Humidity
82%
Altimeter
30.05" Hg
Pressure
1017.62 hPa